Time,TemperatureF,DewpointF,PressureIn,WindDirection,WindDirectionDegrees,WindSpeedMPH,WindSpeedGustMPH,Humidity,HourlyPrecipIn,Conditions,Clouds,dailyrainin,SoftwareType,DateUTC
2013-06-09 00:00:00,50.7,47.0,30.03,SSW,192,0.0,8.0,87,0.00,,,0.00,Wunderground v.1.15,2013-06-09 05:00:00,
2013-06-09 00:05:00,50.7,47.3,30.03,SSW,192,0.0,8.0,88,0.00,,,0.00,Wunderground v.1.15,2013-06-09 05:05:00,
2013-06-09 00:10:00,50.6,47.2,30.02,SSW,192,0.0,8.0,88,0.00,,,0.00,Wunderground v.1.15,2013-06-09 05:10:00,
2013-06-09 00:15:00,50.5,47.4,30.02,SSW,192,0.0,8.0,89,0.00,,,0.00,Wunderground v.1.15,2013-06-09 05:15:00,
2013-06-09 00:20:00,50.6,47.5,30.02,SSW,192,0.0,8.0,89,0.00,,,0.00,Wunderground v.1.15,2013-06-09 05:20:00,
2013-06-09 00:25:00,50.5,47.4,30.02,SSW,192,0.0,8.0,89,0.00,,,0.00,Wunderground v.1.15,2013-06-09 05:25:00,
2013-06-09 00:30:00,50.5,47.7,30.02,SSW,192,0.0,8.0,90,0.00,,,0.00,Wunderground v.1.15,2013-06-09 05:30:00,
2013-06-09 00:35:00,50.4,47.6,30.03,SSW,192,0.0,8.0,90,0.00,,,0.00,Wunderground v.1.15,2013-06-09 05:35:00,
2013-06-09 00:40:00,50.5,47.7,30.03,SSW,192,0.0,8.0,90,0.00,,,0.00,Wunderground v.1.15,2013-06-09 05:40:00,
2013-06-09 00:45:00,50.4,47.6,30.03,SSW,192,0.0,8.0,90,0.00,,,0.00,Wunderground v.1.15,2013-06-09 05:45:00,
2013-06-09 00:50:00,50.4,47.9,30.03,SSW,192,0.0,8.0,91,0.00,,,0.00,Wunderground v.1.15,2013-06-09 05:50:00,
2013-06-09 00:55:00,50.3,47.8,30.03,SSW,192,0.0,8.0,91,0.00,,,0.00,Wunderground v.1.15,2013-06-09 05:55:00,
2013-06-09 01:00:00,50.2,47.4,30.03,SSW,192,0.0,8.0,90,0.00,,,0.00,Wunderground v.1.15,2013-06-09 06:00:00,
2013-06-09 01:05:00,50.0,47.2,30.03,SSW,192,0.0,8.0,90,0.00,,,0.00,Wunderground v.1.15,2013-06-09 06:05:00,
2013-06-09 01:10:00,49.9,47.4,30.03,SSW,192,0.0,8.0,91,0.00,,,0.00,Wunderground v.1.15,2013-06-09 06:10:00,
2013-06-09 01:15:00,49.9,47.4,30.03,SSW,192,0.0,8.0,91,0.00,,,0.00,Wunderground v.1.15,2013-06-09 06:15:00,
2013-06-09 01:20:00,49.9,47.4,30.03,SSW,192,0.0,8.0,91,0.00,,,0.00,Wunderground v.1.15,2013-06-09 06:20:00,
2013-06-09 01:30:00,49.9,47.4,30.04,SSW,192,0.0,8.0,91,0.00,,,0.00,Wunderground v.1.15,2013-06-09 06:30:00,
2013-06-09 01:35:00,49.8,47.3,30.04,SSW,192,0.0,8.0,91,0.00,,,0.00,Wunderground v.1.15,2013-06-09 06:35:00,
2013-06-09 01:40:00,49.5,46.7,30.03,SSW,192,0.0,8.0,90,0.00,,,0.00,Wunderground v.1.15,2013-06-09 06:40:00,
2013-06-09 01:45:00,49.4,46.9,30.03,SSW,192,0.0,8.0,91,0.00,,,0.00,Wunderground v.1.15,2013-06-09 06:45:00,
2013-06-09 01:50:00,49.4,46.9,30.03,SSW,192,0.0,8.0,91,0.00,,,0.00,Wunderground v.1.15,2013-06-09 06:50:00,
2013-06-09 01:55:00,49.3,46.8,30.03,SSW,192,0.0,8.0,91,0.00,,,0.00,Wunderground v.1.15,2013-06-09 06:55:00,
2013-06-09 02:00:00,49.2,46.7,30.03,SSW,192,0.0,8.0,91,0.00,,,0.00,Wunderground v.1.15,2013-06-09 07:00:00,
2013-06-09 02:05:00,49.0,46.5,30.03,SSW,192,0.0,8.0,91,0.00,,,0.00,Wunderground v.1.15,2013-06-09 07:05:00,
2013-06-09 02:10:00,49.0,46.5,30.04,SSW,192,0.0,8.0,91,0.00,,,0.00,Wunderground v.1.15,2013-06-09 07:10:00,
2013-06-09 02:15:00,49.1,46.9,30.04,SSW,192,0.0,8.0,92,0.00,,,0.00,Wunderground v.1.15,2013-06-09 07:15:00,
2013-06-09 02:20:00,49.0,46.8,30.04,SSW,192,0.0,8.0,92,0.00,,,0.00,Wunderground v.1.15,2013-06-09 07:20:00,
2013-06-09 02:25:00,49.1,46.9,30.04,SSW,192,0.0,8.0,92,0.00,,,0.00,Wunderground v.1.15,2013-06-09 07:25:00,
2013-06-09 02:30:00,48.9,46.7,30.03,SSW,192,0.0,8.0,92,0.00,,,0.00,Wunderground v.1.15,2013-06-09 07:30:00,
2013-06-09 02:35:00,48.8,46.6,30.03,SSW,192,0.0,8.0,92,0.00,,,0.00,Wunderground v.1.15,2013-06-09 07:35:00,
2013-06-09 02:40:00,48.7,46.5,30.03,SSW,192,0.0,8.0,92,0.00,,,0.00,Wunderground v.1.15,2013-06-09 07:40:00,
2013-06-09 02:45:00,48.5,46.3,30.03,SSW,192,0.0,8.0,92,0.00,,,0.00,Wunderground v.1.15,2013-06-09 07:45:00,
2013-06-09 02:50:00,48.6,46.7,30.03,SSW,192,0.0,8.0,93,0.00,,,0.00,Wunderground v.1.15,2013-06-09 07:50:00,
2013-06-09 02:55:00,48.8,46.9,30.04,SSW,192,0.0,8.0,93,0.00,,,0.00,Wunderground v.1.15,2013-06-09 07:55:00,
2013-06-09 03:00:00,48.6,46.4,30.04,SSW,192,0.0,8.0,92,0.00,,,0.00,Wunderground v.1.15,2013-06-09 08:00:00,
2013-06-09 03:05:00,48.5,46.6,30.04,SSW,192,0.0,8.0,93,0.00,,,0.00,Wunderground v.1.15,2013-06-09 08:05:00,
2013-06-09 03:15:00,48.5,46.3,30.04,SSW,192,0.0,8.0,92,0.00,,,0.00,Wunderground v.1.15,2013-06-09 08:15:00,
2013-06-09 03:20:00,48.5,46.6,30.04,SSW,192,0.0,8.0,93,0.00,,,0.00,Wunderground v.1.15,2013-06-09 08:20:00,
2013-06-09 03:25:00,48.6,46.7,30.04,SSW,192,0.0,8.0,93,0.00,,,0.00,Wunderground v.1.15,2013-06-09 08:25:00,
2013-06-09 03:30:00,48.7,46.8,30.04,SSW,192,0.0,8.0,93,0.00,,,0.00,Wunderground v.1.15,2013-06-09 08:30:00,
2013-06-09 03:35:00,48.8,46.9,30.04,SSW,192,0.0,8.0,93,0.00,,,0.00,Wunderground v.1.15,2013-06-09 08:35:00,
2013-06-09 03:40:00,48.8,46.9,30.04,SSW,192,0.0,8.0,93,0.00,,,0.00,Wunderground v.1.15,2013-06-09 08:40:00,
2013-06-09 03:50:00,48.7,46.8,30.04,SSW,192,0.0,8.0,93,0.00,,,0.00,Wunderground v.1.15,2013-06-09 08:50:00,
2013-06-09 03:55:00,48.7,46.8,30.04,SSW,192,0.0,8.0,93,0.00,,,0.00,Wunderground v.1.15,2013-06-09 08:55:00,
2013-06-09 04:00:00,48.8,46.9,30.04,SSW,192,0.0,8.0,93,0.00,,,0.00,Wunderground v.1.15,2013-06-09 09:00:00,
2013-06-09 04:10:00,48.9,47.0,30.04,SSW,192,0.0,8.0,93,0.00,,,0.00,Wunderground v.1.15,2013-06-09 09:10:00,
2013-06-09 04:15:00,48.8,46.9,30.04,SSW,192,0.0,8.0,93,0.00,,,0.00,Wunderground v.1.15,2013-06-09 09:15:00,
2013-06-09 04:20:00,49.0,47.3,30.04,SSW,192,0.0,8.0,94,0.00,,,0.00,Wunderground v.1.15,2013-06-09 09:20:00,
2013-06-09 04:25:00,49.2,47.5,30.04,SSW,192,0.0,8.0,94,0.00,,,0.00,Wunderground v.1.15,2013-06-09 09:25:00,
2013-06-09 04:35:00,49.4,47.5,30.04,SSW,192,0.0,8.0,93,0.00,,,0.00,Wunderground v.1.15,2013-06-09 09:35:00,
2013-06-09 04:40:00,49.3,47.4,30.04,SSW,192,0.0,8.0,93,0.00,,,0.00,Wunderground v.1.15,2013-06-09 09:40:00,
2013-06-09 04:45:00,49.2,47.3,30.04,SSW,192,0.0,8.0,93,0.00,,,0.00,Wunderground v.1.15,2013-06-09 09:45:00,
2013-06-09 04:50:00,49.1,47.2,30.04,SSW,192,0.0,8.0,93,0.00,,,0.00,Wunderground v.1.15,2013-06-09 09:50:00,
2013-06-09 04:55:00,49.1,47.4,30.04,SSW,192,0.0,8.0,94,0.00,,,0.00,Wunderground v.1.15,2013-06-09 09:55:00,
2013-06-09 05:00:00,49.2,47.5,30.04,SSW,192,0.0,8.0,94,0.00,,,0.00,Wunderground v.1.15,2013-06-09 10:00:00,
2013-06-09 05:05:00,49.2,47.3,30.04,SSW,192,0.0,8.0,93,0.00,,,0.00,Wunderground v.1.15,2013-06-09 10:05:00,
2013-06-09 05:10:00,49.2,47.5,30.04,SSW,192,0.0,8.0,94,0.00,,,0.00,Wunderground v.1.15,2013-06-09 10:10:00,
2013-06-09 05:15:00,49.2,47.5,30.04,SSW,192,0.0,8.0,94,0.00,,,0.00,Wunderground v.1.15,2013-06-09 10:15:00,
2013-06-09 05:20:00,49.3,47.6,30.04,SSW,192,0.0,8.0,94,0.00,,,0.00,Wunderground v.1.15,2013-06-09 10:20:00,
2013-06-09 05:25:00,49.3,47.6,30.04,SSW,192,0.0,8.0,94,0.00,,,0.00,Wunderground v.1.15,2013-06-09 10:25:00,
2013-06-09 05:30:00,49.4,47.7,30.04,SSW,192,0.0,8.0,94,0.00,,,0.00,Wunderground v.1.15,2013-06-09 10:30:00,
2013-06-09 05:35:00,49.7,48.3,30.04,ESE,120,0.0,8.0,95,0.00,,,0.00,Wunderground v.1.15,2013-06-09 10:35:00,
2013-06-09 05:40:00,50.5,49.1,30.04,ESE,120,0.0,8.0,95,0.00,,,0.00,Wunderground v.1.15,2013-06-09 10:40:00,
2013-06-09 05:45:00,50.9,49.5,30.05,SE,126,0.0,8.0,95,0.00,,,0.00,Wunderground v.1.15,2013-06-09 10:45:00,
2013-06-09 05:50:00,51.6,50.2,30.04,East,96,0.0,8.0,95,0.00,,,0.00,Wunderground v.1.15,2013-06-09 10:50:00,
2013-06-09 05:55:00,52.4,51.0,30.05,ENE,74,0.0,8.0,95,0.00,,,0.00,Wunderground v.1.15,2013-06-09 10:55:00,
2013-06-09 06:00:00,53.2,51.8,30.05,East,89,0.0,8.0,95,0.00,,,0.00,Wunderground v.1.15,2013-06-09 11:00:00,
2013-06-09 06:05:00,53.5,51.8,30.05,East,79,0.0,8.0,94,0.00,,,0.00,Wunderground v.1.15,2013-06-09 11:05:00,
2013-06-09 06:10:00,53.8,52.1,30.05,East,81,0.0,8.0,94,0.00,,,0.00,Wunderground v.1.15,2013-06-09 11:10:00,
2013-06-09 06:15:00,54.4,52.7,30.05,ENE,77,0.0,8.0,94,0.00,,,0.00,Wunderground v.1.15,2013-06-09 11:15:00,
2013-06-09 06:20:00,54.9,52.9,30.05,ENE,65,0.0,8.0,93,0.00,,,0.00,Wunderground v.1.15,2013-06-09 11:20:00,
2013-06-09 06:25:00,55.4,53.4,30.05,ENE,77,0.0,8.0,93,0.00,,,0.00,Wunderground v.1.15,2013-06-09 11:25:00,
2013-06-09 06:30:00,55.9,53.3,30.05,East,94,1.0,8.0,91,0.00,,,0.00,Wunderground v.1.15,2013-06-09 11:30:00,
2013-06-09 06:35:00,56.3,53.7,30.05,East,88,1.0,8.0,91,0.00,,,0.00,Wunderground v.1.15,2013-06-09 11:35:00,
2013-06-09 06:45:00,56.8,53.3,30.05,ESE,107,1.0,4.0,88,0.00,,,0.00,Wunderground v.1.15,2013-06-09 11:45:00,
2013-06-09 06:50:00,56.8,53.0,30.05,East,80,1.0,8.0,87,0.00,,,0.00,Wunderground v.1.15,2013-06-09 11:50:00,
2013-06-09 06:55:00,57.0,53.2,30.05,ENE,76,1.0,8.0,87,0.00,,,0.00,Wunderground v.1.15,2013-06-09 11:55:00,
2013-06-09 07:00:00,57.0,52.9,30.05,East,91,2.0,8.0,86,0.00,,,0.00,Wunderground v.1.15,2013-06-09 12:00:00,
2013-06-09 07:05:00,57.1,53.0,30.05,ENE,75,3.0,8.0,86,0.00,,,0.00,Wunderground v.1.15,2013-06-09 12:05:00,
2013-06-09 07:10:00,57.2,53.0,30.05,East,92,2.0,2.0,86,0.00,,,0.00,Wunderground v.1.15,2013-06-09 12:10:00,
2013-06-09 07:20:00,57.1,52.6,30.05,East,82,2.0,8.0,85,0.00,,,0.00,Wunderground v.1.15,2013-06-09 12:20:00,
2013-06-09 07:25:00,57.3,52.8,30.05,East,82,3.0,8.0,85,0.00,,,0.00,Wunderground v.1.15,2013-06-09 12:25:00,
2013-06-09 07:30:00,57.5,53.0,30.05,ENE,76,3.0,3.0,85,0.00,,,0.00,Wunderground v.1.15,2013-06-09 12:30:00,
2013-06-09 07:40:00,57.9,53.1,30.04,East,88,2.0,8.0,84,0.00,,,0.00,Wunderground v.1.15,2013-06-09 12:40:00,
2013-06-09 07:45:00,58.3,53.2,30.04,ENE,64,3.0,8.0,83,0.00,,,0.00,Wunderground v.1.15,2013-06-09 12:45:00,
2013-06-09 07:50:00,58.9,53.4,30.04,East,81,4.0,4.0,82,0.00,,,0.00,Wunderground v.1.15,2013-06-09 12:50:00,
2013-06-09 08:00:00,59.7,53.5,30.04,ESE,107,5.0,8.0,80,0.00,,,0.00,Wunderground v.1.15,2013-06-09 13:00:00,
2013-06-09 08:05:00,59.9,53.4,30.04,ENE,65,5.0,8.0,79,0.00,,,0.00,Wunderground v.1.15,2013-06-09 13:05:00,
2013-06-09 08:10:00,59.7,53.2,30.05,ENE,59,4.0,8.0,79,0.00,,,0.00,Wunderground v.1.15,2013-06-09 13:10:00,
2013-06-09 08:15:00,59.3,52.8,30.04,ENE,65,5.0,8.0,79,0.00,,,0.00,Wunderground v.1.15,2013-06-09 13:15:00,
2013-06-09 08:20:00,59.4,52.9,30.04,NE,53,5.0,8.0,79,0.00,,,0.00,Wunderground v.1.15,2013-06-09 13:20:00,
2013-06-09 08:25:00,59.4,53.2,30.04,NE,50,5.0,8.0,80,0.00,,,0.00,Wunderground v.1.15,2013-06-09 13:25:00,
2013-06-09 08:30:00,59.3,52.8,30.04,ENE,76,5.0,8.0,79,0.00,,,0.00,Wunderground v.1.15,2013-06-09 13:30:00,
2013-06-09 08:35:00,59.1,52.6,30.04,NE,40,5.0,8.0,79,0.00,,,0.00,Wunderground v.1.15,2013-06-09 13:35:00,
2013-06-09 08:40:00,59.1,52.9,30.04,ENE,61,4.0,8.0,80,0.00,,,0.00,Wunderground v.1.15,2013-06-09 13:40:00,
2013-06-09 08:50:00,59.0,53.2,30.04,ENE,59,4.0,8.0,81,0.00,,,0.00,Wunderground v.1.15,2013-06-09 13:50:00,
2013-06-09 08:55:00,59.0,53.2,30.04,NE,43,4.0,8.0,81,0.00,,,0.00,Wunderground v.1.15,2013-06-09 13:55:00,
2013-06-09 09:00:00,59.2,53.4,30.04,NE,46,4.0,8.0,81,0.00,,,0.00,Wunderground v.1.15,2013-06-09 14:00:00,
2013-06-09 09:05:00,59.1,53.3,30.04,East,79,4.0,8.0,81,0.00,,,0.00,Wunderground v.1.15,2013-06-09 14:05:00,
2013-06-09 09:10:00,59.1,53.6,30.03,NE,55,5.0,5.0,82,0.00,,,0.00,Wunderground v.1.15,2013-06-09 14:10:00,
2013-06-09 09:15:00,59.4,53.2,30.03,East,86,4.0,6.0,80,0.00,,,0.00,Wunderground v.1.15,2013-06-09 14:15:00,
2013-06-09 09:20:00,59.6,53.1,30.03,NE,51,5.0,8.0,79,0.00,,,0.00,Wunderground v.1.15,2013-06-09 14:20:00,
2013-06-09 09:25:00,59.5,53.0,30.03,ENE,70,6.0,8.0,79,0.00,,,0.00,Wunderground v.1.15,2013-06-09 14:25:00,
2013-06-09 09:30:00,59.4,53.2,30.03,NE,50,6.0,6.0,80,0.00,,,0.00,Wunderground v.1.15,2013-06-09 14:30:00,
2013-06-09 09:35:00,59.4,53.2,30.03,ENE,71,6.0,8.0,80,0.00,,,0.00,Wunderground v.1.15,2013-06-09 14:35:00,
2013-06-09 09:40:00,59.4,53.2,30.02,ENE,73,6.0,8.0,80,0.00,,,0.00,Wunderground v.1.15,2013-06-09 14:40:00,
2013-06-09 09:50:00,59.4,53.2,30.03,ENE,58,5.0,5.0,80,0.00,,,0.00,Wunderground v.1.15,2013-06-09 14:50:00,
2013-06-09 10:00:00,59.5,53.3,30.03,East,86,4.0,8.0,80,0.00,,,0.00,Wunderground v.1.15,2013-06-09 15:00:00,
2013-06-09 10:05:00,59.3,53.1,30.03,NE,44,3.0,8.0,80,0.00,,,0.00,Wunderground v.1.15,2013-06-09 15:05:00,
2013-06-09 10:10:00,59.2,53.4,30.03,NE,42,3.0,3.0,81,0.00,,,0.00,Wunderground v.1.15,2013-06-09 15:10:00,
2013-06-09 10:15:00,59.2,53.4,30.03,NE,52,3.0,4.0,81,0.00,,,0.00,Wunderground v.1.15,2013-06-09 15:15:00,
2013-06-09 10:20:00,59.1,53.3,30.03,ENE,67,3.0,3.0,81,0.00,,,0.00,Wunderground v.1.15,2013-06-09 15:20:00,
2013-06-09 10:25:00,59.0,53.5,30.03,ENE,65,4.0,5.0,82,0.00,,,0.00,Wunderground v.1.15,2013-06-09 15:25:00,
2013-06-09 10:30:00,59.0,53.8,30.03,East,92,3.0,8.0,83,0.00,,,0.00,Wunderground v.1.15,2013-06-09 15:30:00,
2013-06-09 10:35:00,59.0,53.8,30.03,ENE,77,2.0,8.0,83,0.00,,,0.00,Wunderground v.1.15,2013-06-09 15:35:00,
2013-06-09 10:40:00,59.0,54.2,30.03,ENE,67,3.0,8.0,84,0.00,,,0.00,Wunderground v.1.15,2013-06-09 15:40:00,
2013-06-09 10:45:00,58.8,54.0,30.03,ENE,72,4.0,8.0,84,0.00,,,0.00,Wunderground v.1.15,2013-06-09 15:45:00,
2013-06-09 10:50:00,58.7,54.2,30.03,ENE,73,4.0,4.0,85,0.00,,,0.00,Wunderground v.1.15,2013-06-09 15:50:00,
2013-06-09 11:00:00,58.6,54.4,30.03,ENE,66,4.0,8.0,86,0.00,,,0.00,Wunderground v.1.15,2013-06-09 16:00:00,
2013-06-09 11:05:00,58.5,54.3,30.03,NNE,29,4.0,8.0,86,0.00,,,0.00,Wunderground v.1.15,2013-06-09 16:05:00,
2013-06-09 11:10:00,58.3,54.1,30.03,NNE,33,5.0,5.0,86,0.00,,,0.00,Wunderground v.1.15,2013-06-09 16:10:00,
2013-06-09 11:15:00,58.4,54.5,30.03,ENE,65,4.0,8.0,87,0.00,,,0.00,Wunderground v.1.15,2013-06-09 16:15:00,
2013-06-09 11:20:00,58.6,54.7,30.03,NE,42,4.0,4.0,87,0.00,,,0.00,Wunderground v.1.15,2013-06-09 16:20:00,
2013-06-09 11:30:00,58.7,54.5,30.03,NE,44,4.0,8.0,86,0.00,,,0.00,Wunderground v.1.15,2013-06-09 16:30:00,
2013-06-09 11:35:00,58.6,54.1,30.03,ENE,65,5.0,8.0,85,0.00,,,0.00,Wunderground v.1.15,2013-06-09 16:35:00,
2013-06-09 11:40:00,58.7,54.5,30.03,NE,46,4.0,4.0,86,0.00,,,0.00,Wunderground v.1.15,2013-06-09 16:40:00,
2013-06-09 11:45:00,58.9,54.4,30.03,NE,49,3.0,8.0,85,0.00,,,0.00,Wunderground v.1.15,2013-06-09 16:45:00,
2013-06-09 11:50:00,59.1,54.6,30.03,East,79,3.0,8.0,85,0.00,,,0.00,Wunderground v.1.15,2013-06-09 16:50:00,
2013-06-09 11:55:00,59.3,54.5,30.02,East,88,4.0,8.0,84,0.00,,,0.00,Wunderground v.1.15,2013-06-09 16:55:00,
2013-06-09 12:00:00,59.4,54.2,30.02,ENE,78,5.0,8.0,83,0.00,,,0.00,Wunderground v.1.15,2013-06-09 17:00:00,
2013-06-09 12:05:00,59.5,54.3,30.02,ENE,57,5.0,8.0,83,0.00,,,0.00,Wunderground v.1.15,2013-06-09 17:05:00,
2013-06-09 12:10:00,59.7,54.5,30.02,East,95,4.0,8.0,83,0.00,,,0.00,Wunderground v.1.15,2013-06-09 17:10:00,
2013-06-09 12:15:00,59.5,54.3,30.02,NE,54,5.0,8.0,83,0.00,,,0.00,Wunderground v.1.15,2013-06-09 17:15:00,
2013-06-09 12:20:00,59.5,54.3,30.01,ENE,58,6.0,8.0,83,0.00,,,0.00,Wunderground v.1.15,2013-06-09 17:20:00,
2013-06-09 12:25:00,59.4,54.2,30.01,ENE,72,6.0,10.0,83,0.00,,,0.00,Wunderground v.1.15,2013-06-09 17:25:00,
2013-06-09 12:30:00,59.3,54.1,30.01,ENE,65,6.0,6.0,83,0.00,,,0.00,Wunderground v.1.15,2013-06-09 17:30:00,
2013-06-09 12:35:00,59.2,54.0,30.02,ENE,71,6.0,8.0,83,0.00,,,0.00,Wunderground v.1.15,2013-06-09 17:35:00,
2013-06-09 12:45:00,59.0,54.2,30.01,ENE,74,5.0,8.0,84,0.00,,,0.00,Wunderground v.1.15,2013-06-09 17:45:00,
2013-06-09 12:50:00,58.6,53.8,30.01,NNE,33,5.0,8.0,84,0.00,,,0.00,Wunderground v.1.15,2013-06-09 17:50:00,
2013-06-09 12:55:00,58.4,53.9,30.01,ENE,78,6.0,8.0,85,0.00,,,0.00,Wunderground v.1.15,2013-06-09 17:55:00,
2013-06-09 13:00:00,58.4,53.9,30.01,ENE,59,5.0,5.0,85,0.00,,,0.00,Wunderground v.1.15,2013-06-09 18:00:00,
2013-06-09 13:05:00,58.5,54.0,30.00,East,83,4.0,8.0,85,0.00,,,0.00,Wunderground v.1.15,2013-06-09 18:05:00,
2013-06-09 13:10:00,58.5,54.0,30.00,ENE,61,5.0,5.0,85,0.00,,,0.00,Wunderground v.1.15,2013-06-09 18:10:00,
2013-06-09 13:15:00,58.5,54.0,30.00,ENE,78,6.0,6.0,85,0.00,,,0.00,Wunderground v.1.15,2013-06-09 18:15:00,
2013-06-09 13:20:00,58.7,54.2,30.00,ENE,61,6.0,10.0,85,0.00,,,0.00,Wunderground v.1.15,2013-06-09 18:20:00,
2013-06-09 13:25:00,58.9,54.1,30.00,North,9,6.0,10.0,84,0.00,,,0.00,Wunderground v.1.15,2013-06-09 18:25:00,
2013-06-09 13:30:00,59.1,53.9,30.00,NNE,30,7.0,7.0,83,0.00,,,0.00,Wunderground v.1.15,2013-06-09 18:30:00,
2013-06-09 13:35:00,59.7,54.5,30.00,ENE,57,7.0,11.0,83,0.00,,,0.00,Wunderground v.1.15,2013-06-09 18:35:00,
2013-06-09 13:40:00,60.0,54.5,29.99,NE,48,6.0,8.0,82,0.00,,,0.00,Wunderground v.1.15,2013-06-09 18:40:00,
2013-06-09 13:45:00,60.5,54.6,29.99,NNE,32,7.0,10.0,81,0.00,,,0.00,Wunderground v.1.15,2013-06-09 18:45:00,
2013-06-09 13:50:00,61.0,55.1,29.99,ENE,67,8.0,8.0,81,0.00,,,0.00,Wunderground v.1.15,2013-06-09 18:50:00,
2013-06-09 13:55:00,61.9,56.0,29.99,NE,49,8.0,8.0,81,0.00,,,0.00,Wunderground v.1.15,2013-06-09 18:55:00,
2013-06-09 14:00:00,62.2,55.3,29.99,ENE,63,7.0,8.0,78,0.00,,,0.00,Wunderground v.1.15,2013-06-09 19:00:00,
2013-06-09 14:05:00,62.3,55.0,29.99,NE,52,7.0,8.0,77,0.00,,,0.00,Wunderground v.1.15,2013-06-09 19:05:00,
2013-06-09 14:10:00,62.3,55.4,29.98,ENE,63,7.0,8.0,78,0.00,,,0.00,Wunderground v.1.15,2013-06-09 19:10:00,
2013-06-09 14:15:00,62.3,55.0,29.98,NE,39,7.0,9.0,77,0.00,,,0.00,Wunderground v.1.15,2013-06-09 19:15:00,
2013-06-09 14:20:00,62.7,55.4,29.98,ENE,63,7.0,7.0,77,0.00,,,0.00,Wunderground v.1.15,2013-06-09 19:20:00,
2013-06-09 14:25:00,63.4,56.1,29.98,NNE,32,6.0,8.0,77,0.00,,,0.00,Wunderground v.1.15,2013-06-09 19:25:00,
2013-06-09 14:30:00,63.5,55.4,29.98,NE,47,6.0,8.0,75,0.00,,,0.00,Wunderground v.1.15,2013-06-09 19:30:00,
2013-06-09 14:35:00,63.5,55.8,29.98,NNE,28,6.0,8.0,76,0.00,,,0.00,Wunderground v.1.15,2013-06-09 19:35:00,
2013-06-09 14:40:00,63.0,54.9,29.98,NE,43,6.0,6.0,75,0.00,,,0.00,Wunderground v.1.15,2013-06-09 19:40:00,
2013-06-09 14:45:00,62.4,55.1,29.98,NE,45,6.0,8.0,77,0.00,,,0.00,Wunderground v.1.15,2013-06-09 19:45:00,
2013-06-09 14:50:00,62.6,55.6,29.98,NE,45,6.0,10.0,78,0.00,,,0.00,Wunderground v.1.15,2013-06-09 19:50:00,
2013-06-09 14:55:00,63.2,55.9,29.98,East,96,6.0,10.0,77,0.00,,,0.00,Wunderground v.1.15,2013-06-09 19:55:00,
2013-06-09 15:00:00,64.0,56.3,29.98,NE,39,6.0,6.0,76,0.00,,,0.00,Wunderground v.1.15,2013-06-09 20:00:00,
2013-06-09 15:05:00,64.0,55.5,29.97,NNE,23,6.0,10.0,74,0.00,,,0.00,Wunderground v.1.15,2013-06-09 20:05:00,
2013-06-09 15:10:00,63.7,55.6,29.97,ENE,74,7.0,7.0,75,0.00,,,0.00,Wunderground v.1.15,2013-06-09 20:10:00,
2013-06-09 15:15:00,64.0,56.3,29.97,ENE,61,7.0,8.0,76,0.00,,,0.00,Wunderground v.1.15,2013-06-09 20:15:00,
2013-06-09 15:20:00,64.6,56.1,29.97,ESE,114,5.0,8.0,74,0.00,,,0.00,Wunderground v.1.15,2013-06-09 20:20:00,
2013-06-09 15:25:00,64.6,56.1,29.97,East,83,5.0,8.0,74,0.00,,,0.00,Wunderground v.1.15,2013-06-09 20:25:00,
2013-06-09 15:30:00,64.4,55.6,29.97,NE,53,6.0,8.0,73,0.00,,,0.00,Wunderground v.1.15,2013-06-09 20:30:00,
2013-06-09 15:35:00,64.5,55.7,29.96,NNE,33,6.0,8.0,73,0.00,,,0.00,Wunderground v.1.15,2013-06-09 20:35:00,
2013-06-09 15:40:00,64.9,56.0,29.96,ENE,58,6.0,6.0,73,0.00,,,0.00,Wunderground v.1.15,2013-06-09 20:40:00,
2013-06-09 15:45:00,65.1,56.6,29.96,East,95,6.0,8.0,74,0.00,,,0.00,Wunderground v.1.15,2013-06-09 20:45:00,
2013-06-09 15:50:00,65.1,56.2,29.95,East,101,6.0,9.0,73,0.00,,,0.00,Wunderground v.1.15,2013-06-09 20:50:00,
2013-06-09 16:00:00,64.7,55.8,29.95,East,86,7.0,7.0,73,0.00,,,0.00,Wunderground v.1.15,2013-06-09 21:00:00,
2013-06-09 16:05:00,64.5,55.7,29.95,NE,47,6.0,8.0,73,0.00,,,0.00,Wunderground v.1.15,2013-06-09 21:05:00,
2013-06-09 16:10:00,64.3,55.8,29.95,NE,47,6.0,6.0,74,0.00,,,0.00,Wunderground v.1.15,2013-06-09 21:10:00,
2013-06-09 16:15:00,64.2,55.4,29.94,ENE,71,6.0,7.0,73,0.00,,,0.00,Wunderground v.1.15,2013-06-09 21:15:00,
2013-06-09 16:20:00,64.5,55.7,29.94,NNE,26,6.0,8.0,73,0.00,,,0.00,Wunderground v.1.15,2013-06-09 21:20:00,
2013-06-09 16:25:00,64.9,56.4,29.94,East,98,6.0,8.0,74,0.00,,,0.00,Wunderground v.1.15,2013-06-09 21:25:00,
2013-06-09 16:35:00,64.7,55.5,29.94,ENE,76,5.0,8.0,72,0.00,,,0.00,Wunderground v.1.15,2013-06-09 21:35:00,
2013-06-09 16:40:00,64.7,55.8,29.94,NE,48,5.0,8.0,73,0.00,,,0.00,Wunderground v.1.15,2013-06-09 21:40:00,
2013-06-09 16:45:00,64.4,55.2,29.94,NE,46,6.0,8.0,72,0.00,,,0.00,Wunderground v.1.15,2013-06-09 21:45:00,
2013-06-09 16:50:00,64.1,55.3,29.93,NE,37,6.0,6.0,73,0.00,,,0.00,Wunderground v.1.15,2013-06-09 21:50:00,
2013-06-09 16:55:00,64.0,55.2,29.93,NE,49,6.0,8.0,73,0.00,,,0.00,Wunderground v.1.15,2013-06-09 21:55:00,
2013-06-09 17:00:00,63.8,55.4,29.93,ENE,69,5.0,5.0,74,0.00,,,0.00,Wunderground v.1.15,2013-06-09 22:00:00,
2013-06-09 17:10:00,63.6,54.8,29.93,ENE,67,5.0,8.0,73,0.00,,,0.00,Wunderground v.1.15,2013-06-09 22:10:00,
2013-06-09 17:15:00,63.7,55.3,29.93,ENE,61,6.0,8.0,74,0.00,,,0.00,Wunderground v.1.15,2013-06-09 22:15:00,
2013-06-09 17:20:00,63.7,55.3,29.92,East,79,6.0,6.0,74,0.00,,,0.00,Wunderground v.1.15,2013-06-09 22:20:00,
2013-06-09 17:25:00,63.6,55.2,29.92,NE,47,6.0,8.0,74,0.00,,,0.00,Wunderground v.1.15,2013-06-09 22:25:00,
2013-06-09 17:30:00,63.6,55.2,29.92,NE,40,6.0,8.0,74,0.00,,,0.00,Wunderground v.1.15,2013-06-09 22:30:00,
2013-06-09 17:35:00,63.5,55.1,29.92,NE,38,6.0,8.0,74,0.00,,,0.00,Wunderground v.1.15,2013-06-09 22:35:00,
2013-06-09 17:40:00,63.4,55.0,29.92,NE,49,6.0,8.0,74,0.00,,,0.00,Wunderground v.1.15,2013-06-09 22:40:00,
2013-06-09 17:45:00,63.1,54.7,29.92,NE,54,6.0,8.0,74,0.00,,,0.00,Wunderground v.1.15,2013-06-09 22:45:00,
2013-06-09 17:50:00,62.9,54.9,29.92,East,82,5.0,5.0,75,0.00,,,0.00,Wunderground v.1.15,2013-06-09 22:50:00,
2013-06-09 18:00:00,62.5,54.8,29.91,NE,38,5.0,8.0,76,0.00,,,0.00,Wunderground v.1.15,2013-06-09 23:00:00,
2013-06-09 18:05:00,62.4,54.7,29.92,NE,35,6.0,8.0,76,0.00,,,0.00,Wunderground v.1.15,2013-06-09 23:05:00,
2013-06-09 18:15:00,62.5,55.2,29.92,NE,41,5.0,8.0,77,0.00,,,0.00,Wunderground v.1.15,2013-06-09 23:15:00,
2013-06-09 18:25:00,62.7,55.0,29.91,NE,55,5.0,8.0,76,0.00,,,0.00,Wunderground v.1.15,2013-06-09 23:25:00,
2013-06-09 18:30:00,62.8,55.1,29.91,NE,51,5.0,8.0,76,0.00,,,0.00,Wunderground v.1.15,2013-06-09 23:30:00,
2013-06-09 18:35:00,62.8,55.1,29.91,East,82,5.0,8.0,76,0.00,,,0.00,Wunderground v.1.15,2013-06-09 23:35:00,
2013-06-09 18:40:00,62.7,55.4,29.91,NE,43,5.0,8.0,77,0.00,,,0.00,Wunderground v.1.15,2013-06-09 23:40:00,
2013-06-09 18:45:00,62.6,55.3,29.91,ENE,78,5.0,8.0,77,0.00,,,0.00,Wunderground v.1.15,2013-06-09 23:45:00,
2013-06-09 18:50:00,62.5,55.5,29.91,NE,35,5.0,8.0,78,0.00,,,0.00,Wunderground v.1.15,2013-06-09 23:50:00,
2013-06-09 18:55:00,62.4,55.4,29.91,ENE,61,4.0,8.0,78,0.00,,,0.00,Wunderground v.1.15,2013-06-09 23:55:00,
2013-06-09 19:00:00,62.3,55.4,29.91,ENE,65,4.0,4.0,78,0.00,,,0.00,Wunderground v.1.15,2013-06-10 00:00:00,
2013-06-09 19:05:00,62.3,55.7,29.91,ENE,60,4.0,8.0,79,0.00,,,0.00,Wunderground v.1.15,2013-06-10 00:05:00,
2013-06-09 19:10:00,62.4,55.8,29.91,East,79,3.0,8.0,79,0.00,,,0.00,Wunderground v.1.15,2013-06-10 00:10:00,
2013-06-09 19:15:00,62.3,55.7,29.91,East,89,3.0,8.0,79,0.00,,,0.00,Wunderground v.1.15,2013-06-10 00:15:00,
2013-06-09 19:20:00,62.3,55.7,29.91,ENE,74,3.0,8.0,79,0.00,,,0.00,Wunderground v.1.15,2013-06-10 00:20:00,
2013-06-09 19:25:00,62.3,56.0,29.91,ENE,64,3.0,8.0,80,0.00,,,0.00,Wunderground v.1.15,2013-06-10 00:25:00,
2013-06-09 19:30:00,62.3,56.0,29.91,East,86,4.0,8.0,80,0.00,,,0.00,Wunderground v.1.15,2013-06-10 00:30:00,
2013-06-09 19:40:00,62.2,56.0,29.91,ENE,65,3.0,3.0,80,0.00,,,0.00,Wunderground v.1.15,2013-06-10 00:40:00,
2013-06-09 19:45:00,62.1,55.9,29.91,ENE,68,2.0,8.0,80,0.00,,,0.00,Wunderground v.1.15,2013-06-10 00:45:00,
2013-06-09 19:50:00,62.1,56.2,29.91,NE,35,2.0,8.0,81,0.00,,,0.00,Wunderground v.1.15,2013-06-10 00:50:00,
2013-06-09 19:55:00,62.2,56.3,29.91,ENE,75,2.0,8.0,81,0.00,,,0.00,Wunderground v.1.15,2013-06-10 00:55:00,
2013-06-09 20:00:00,62.1,56.2,29.91,NE,40,2.0,8.0,81,0.00,,,0.00,Wunderground v.1.15,2013-06-10 01:00:00,
2013-06-09 20:05:00,62.1,56.2,29.91,NE,36,3.0,8.0,81,0.00,,,0.00,Wunderground v.1.15,2013-06-10 01:05:00,
2013-06-09 20:10:00,62.2,56.3,29.91,NE,40,3.0,3.0,81,0.00,,,0.00,Wunderground v.1.15,2013-06-10 01:10:00,
2013-06-09 20:15:00,62.4,56.5,29.91,NE,52,3.0,8.0,81,0.00,,,0.00,Wunderground v.1.15,2013-06-10 01:15:00,
2013-06-09 20:20:00,62.5,56.6,29.91,NE,47,3.0,3.0,81,0.00,,,0.00,Wunderground v.1.15,2013-06-10 01:20:00,
2013-06-09 20:25:00,62.7,56.8,29.91,ENE,77,2.0,8.0,81,0.00,,,0.00,Wunderground v.1.15,2013-06-10 01:25:00,
2013-06-09 20:30:00,62.7,56.4,29.91,ENE,71,1.0,8.0,80,0.00,,,0.00,Wunderground v.1.15,2013-06-10 01:30:00,
2013-06-09 20:35:00,62.9,56.6,29.91,East,80,1.0,8.0,80,0.00,,,0.00,Wunderground v.1.15,2013-06-10 01:35:00,
2013-06-09 20:40:00,63.0,56.7,29.91,NE,44,1.0,1.0,80,0.00,,,0.00,Wunderground v.1.15,2013-06-10 01:40:00,
2013-06-09 20:50:00,63.1,56.8,29.90,NNE,28,0.0,8.0,80,0.00,,,0.00,Wunderground v.1.15,2013-06-10 01:50:00,
2013-06-09 20:55:00,63.2,56.9,29.90,NE,46,0.0,8.0,80,0.00,,,0.00,Wunderground v.1.15,2013-06-10 01:55:00,
2013-06-09 21:05:00,63.1,56.8,29.90,ENE,57,2.0,8.0,80,0.00,,,0.00,Wunderground v.1.15,2013-06-10 02:05:00,
2013-06-09 21:10:00,63.1,56.8,29.90,NE,42,2.0,2.0,80,0.00,,,0.00,Wunderground v.1.15,2013-06-10 02:10:00,
2013-06-09 21:20:00,63.0,56.7,29.90,ENE,69,2.0,8.0,80,0.00,,,0.00,Wunderground v.1.15,2013-06-10 02:20:00,
2013-06-09 21:25:00,63.0,56.7,29.90,NE,54,2.0,8.0,80,0.00,,,0.00,Wunderground v.1.15,2013-06-10 02:25:00,
2013-06-09 21:30:00,62.9,56.6,29.90,ENE,65,1.0,8.0,80,0.00,,,0.00,Wunderground v.1.15,2013-06-10 02:30:00,
2013-06-09 21:35:00,62.8,56.5,29.90,NE,55,0.0,8.0,80,0.00,,,0.00,Wunderground v.1.15,2013-06-10 02:35:00,
2013-06-09 21:40:00,62.7,56.4,29.90,ENE,76,0.0,8.0,80,0.00,,,0.00,Wunderground v.1.15,2013-06-10 02:40:00,
2013-06-09 21:45:00,62.7,56.4,29.91,ENE,59,0.0,8.0,80,0.00,,,0.00,Wunderground v.1.15,2013-06-10 02:45:00,
2013-06-09 21:50:00,62.6,56.3,29.91,East,90,0.0,8.0,80,0.00,,,0.00,Wunderground v.1.15,2013-06-10 02:50:00,
2013-06-09 21:55:00,62.5,56.2,29.91,East,90,0.0,8.0,80,0.00,,,0.00,Wunderground v.1.15,2013-06-10 02:55:00,
2013-06-09 22:05:00,62.4,56.5,29.91,ENE,69,0.0,8.0,81,0.00,,,0.00,Wunderground v.1.15,2013-06-10 03:05:00,
2013-06-09 22:10:00,62.2,56.3,29.91,ENE,65,1.0,1.0,81,0.00,,,0.00,Wunderground v.1.15,2013-06-10 03:10:00,
2013-06-09 22:15:00,62.1,56.2,29.91,ENE,59,1.0,8.0,81,0.00,,,0.00,Wunderground v.1.15,2013-06-10 03:15:00,
2013-06-09 22:20:00,62.0,56.1,29.91,NE,53,1.0,8.0,81,0.00,,,0.00,Wunderground v.1.15,2013-06-10 03:20:00,
2013-06-09 22:25:00,61.8,55.9,29.90,ENE,69,1.0,8.0,81,0.00,,,0.00,Wunderground v.1.15,2013-06-10 03:25:00,
2013-06-09 22:30:00,61.8,56.2,29.90,ENE,59,1.0,1.0,82,0.00,,,0.00,Wunderground v.1.15,2013-06-10 03:30:00,
2013-06-09 22:35:00,61.7,56.1,29.90,East,88,0.0,8.0,82,0.00,,,0.00,Wunderground v.1.15,2013-06-10 03:35:00,
2013-06-09 22:40:00,61.6,56.0,29.90,ENE,75,0.0,8.0,82,0.00,,,0.00,Wunderground v.1.15,2013-06-10 03:40:00,
2013-06-09 22:45:00,61.4,55.9,29.90,ENE,66,0.0,8.0,82,0.00,,,0.00,Wunderground v.1.15,2013-06-10 03:45:00,
2013-06-09 22:50:00,61.2,56.0,29.90,ENE,74,0.0,8.0,83,0.00,,,0.00,Wunderground v.1.15,2013-06-10 03:50:00,
2013-06-09 22:55:00,60.9,55.7,29.90,East,85,0.0,8.0,83,0.00,,,0.00,Wunderground v.1.15,2013-06-10 03:55:00,
2013-06-09 23:00:00,60.7,55.5,29.90,East,91,0.0,8.0,83,0.00,,,0.00,Wunderground v.1.15,2013-06-10 04:00:00,
2013-06-09 23:05:00,60.5,55.6,29.90,East,93,0.0,8.0,84,0.00,,,0.00,Wunderground v.1.15,2013-06-10 04:05:00,
2013-06-09 23:10:00,60.5,55.6,29.90,East,93,0.0,8.0,84,0.00,,,0.00,Wunderground v.1.15,2013-06-10 04:10:00,
2013-06-09 23:15:00,60.4,55.5,29.90,East,93,0.0,8.0,84,0.00,,,0.00,Wunderground v.1.15,2013-06-10 04:15:00,
2013-06-09 23:20:00,60.2,55.7,29.89,East,93,0.0,8.0,85,0.00,,,0.00,Wunderground v.1.15,2013-06-10 04:20:00,
2013-06-09 23:25:00,60.0,55.5,29.89,East,93,0.0,8.0,85,0.00,,,0.00,Wunderground v.1.15,2013-06-10 04:25:00,
2013-06-09 23:30:00,59.7,55.5,29.90,ENE,64,0.0,8.0,86,0.00,,,0.00,Wunderground v.1.15,2013-06-10 04:30:00,
2013-06-09 23:35:00,59.5,55.3,29.90,East,86,1.0,8.0,86,0.00,,,0.00,Wunderground v.1.15,2013-06-10 04:35:00,
2013-06-09 23:45:00,59.2,55.3,29.89,ENE,70,0.0,8.0,87,0.00,,,0.00,Wunderground v.1.15,2013-06-10 04:45:00,
2013-06-09 23:50:00,59.2,55.3,29.89,ENE,70,0.0,8.0,87,0.00,,,0.00,Wunderground v.1.15,2013-06-10 04:50:00,
2013-06-09 23:55:00,59.2,55.3,29.89,ENE,70,0.0,8.0,87,0.00,,,0.00,Wunderground v.1.15,2013-06-10 04:55:00,